HTTB

Tabora Airport

Tabora, Tanzania
METAR HTTB 170400Z 00000KT 9999 TS FEW020 FEW021CB BKN080 22/18 Q1019
Observed Flight Rules
Oct-17 @ 04:00 UTC (an hour ago) Visual Flight Rules
Visibility Clouds Conditions
10,000+ meters
  • Few at 2,000' AGL
  • Few at 2,100' AGL
  • Broken at 8,000' AGL
  • Thunderstorm
Temperatures Readings
Current 22°C / 72°F
Dewpoint 18°C / 64°F
Humidity 78%
Altimeter 30.09" Hg
Pressure 1019 hPa
Elevation 1190
METAR HTTB 170400Z 00000KT 9999 TS FEW020 FEW021CB BKN080 22/18 Q1019
Observed Flight Rules
Oct-17 @ 04:00 UTC
(an hour ago)
VFR
Clouds
  • Few at 2,000' AGL
  • Few at 2,100' AGL
  • Broken at 8,000' AGL
Conditions
  • Thunderstorm
Temperature Dewpoint
22°C / 72°F 18°C / 64°F
Humidity Altimeter Pressure
78% 30.09" Hg 1019 hPa